Time;durP1;ratioP1;P1;durP2;ratioP2;P2;SDS_P1;SDS_P2;PMS_P1;PMS_P2;Temp;Humidity;BMP_temperature;BMP_pressure;BME280_temperature;BME280_humidity;BME280_pressure;Samples;Min_cycle;Max_cycle;Signal;HPM_P1;HPM_P2
2022/03/23 00:01:39;;;;;;;0.00;0.00;;;7.10;67.90;;;;;;5158801;27;20023;-76
2022/03/23 00:04:05;;;;;;;0.00;0.00;;;7.10;67.40;;;;;;5143294;27;20138;-76
2022/03/23 00:06:31;;;;;;;0.00;0.00;;;7.10;67.30;;;;;;5142473;27;20023;-76
2022/03/23 00:08:57;;;;;;;0.00;0.00;;;7.00;67.20;;;;;;5143124;27;20065;-76
2022/03/23 00:11:24;;;;;;;0.00;0.00;;;7.00;66.70;;;;;;5142733;27;20298;-76
2022/03/23 00:13:50;;;;;;;0.00;0.00;;;6.90;66.10;;;;;;5142791;27;20011;-76
2022/03/23 00:16:16;;;;;;;0.00;0.00;;;6.90;65.10;;;;;;5159435;27;20053;-78
2022/03/23 00:18:42;;;;;;;0.00;0.00;;;7.00;65.30;;;;;;5141582;27;20038;-77
2022/03/23 00:21:07;;;;;;;0.00;0.00;;;6.90;66.10;;;;;;5158565;27;20019;-77
2022/03/23 00:23:33;;;;;;;0.00;0.00;;;6.90;66.00;;;;;;5142356;27;20019;-77
2022/03/23 00:25:59;;;;;;;0.00;0.00;;;6.90;66.60;;;;;;5124635;27;20065;-77
2022/03/23 00:28:26;;;;;;;0.00;0.00;;;6.90;66.50;;;;;;5158257;27;20019;-76
2022/03/23 00:30:53;;;;;;;0.00;0.00;;;6.80;67.20;;;;;;5142983;27;20255;-77
2022/03/23 00:33:21;;;;;;;0.00;0.00;;;6.80;68.20;;;;;;5142721;27;20032;-78
2022/03/23 00:35:48;;;;;;;0.00;0.00;;;6.80;67.80;;;;;;5142054;27;20039;-75
2022/03/23 00:38:15;;;;;;;0.00;0.00;;;6.80;67.70;;;;;;5124508;27;20022;-76
2022/03/23 00:40:44;;;;;;;1.15;1.15;;;6.80;67.70;;;;;;5123283;27;20027;-76
2022/03/23 00:43:10;;;;;;;;;;;6.70;67.60;;;;;;5142526;27;20397;-76
2022/03/23 00:45:37;;;;;;;0.00;0.00;;;6.70;68.00;;;;;;5123213;27;19930;-76
2022/03/23 00:48:04;;;;;;;0.00;0.00;;;6.70;67.50;;;;;;5141907;27;20233;-76
2022/03/23 00:50:30;;;;;;;0.00;0.00;;;6.70;68.00;;;;;;5141532;27;20324;-76
2022/03/23 00:52:55;;;;;;;0.00;0.00;;;6.70;68.90;;;;;;5123637;27;20080;-76
2022/03/23 00:55:21;;;;;;;0.00;0.00;;;6.60;69.30;;;;;;5142013;27;20301;-76
2022/03/23 00:57:47;;;;;;;0.00;0.00;;;6.60;68.90;;;;;;5141899;27;20106;-74
2022/03/23 01:00:16;;;;;;;0.00;0.00;;;6.50;69.20;;;;;;5123700;27;20274;-74
2022/03/23 01:02:43;;;;;;;0.00;0.00;;;6.40;69.10;;;;;;5141366;27;20019;-74
2022/03/23 01:05:12;;;;;;;0.00;0.00;;;6.40;68.60;;;;;;5142110;27;20095;-74
2022/03/23 01:07:39;;;;;;;0.00;0.00;;;6.40;67.90;;;;;;5123001;27;20019;-76
2022/03/23 01:10:06;;;;;;;0.00;0.00;;;6.30;67.70;;;;;;5142064;27;20019;-74
2022/03/23 01:12:32;;;;;;;0.00;0.00;;;6.30;67.90;;;;;;5141507;27;20046;-75
2022/03/23 01:14:58;;;;;;;0.00;0.00;;;6.30;67.20;;;;;;5141480;27;20019;-75
2022/03/23 01:17:25;;;;;;;0.00;0.00;;;6.30;68.10;;;;;;5141519;27;20082;-74
2022/03/23 01:19:51;;;;;;;0.00;0.00;;;6.30;68.70;;;;;;5141579;27;20031;-74
2022/03/23 01:22:17;;;;;;;0.00;0.00;;;6.30;68.50;;;;;;5141312;27;20321;-74
2022/03/23 01:24:44;;;;;;;0.00;0.00;;;6.30;68.60;;;;;;5141032;27;20023;-73
2022/03/23 01:27:09;;;;;;;0.00;0.00;;;6.30;68.70;;;;;;5123239;27;20019;-74
2022/03/23 01:29:36;;;;;;;0.00;0.00;;;6.20;68.70;;;;;;5122663;27;20195;-75
2022/03/23 01:32:02;;;;;;;0.00;0.00;;;6.30;69.10;;;;;;5122687;27;20015;-75
2022/03/23 01:34:28;;;;;;;0.00;0.00;;;6.20;69.00;;;;;;5122517;27;20083;-75
2022/03/23 01:36:53;;;;;;;0.00;0.00;;;6.20;68.90;;;;;;5141296;27;20292;-76
2022/03/23 01:39:19;;;;;;;0.00;0.00;;;6.30;69.70;;;;;;5157456;27;20345;-76
2022/03/23 01:41:46;;;;;;;0.00;0.00;;;6.20;69.70;;;;;;5140556;27;20299;-77
2022/03/23 01:44:21;;;;;;;0.00;0.00;;;6.20;70.40;;;;;;5122887;27;20171;-76
2022/03/23 01:47:02;;;;;;;0.00;0.00;;;6.20;71.00;;;;;;5140692;27;20023;-75
2022/03/23 01:49:28;;;;;;;0.00;0.00;;;6.00;70.50;;;;;;5121902;27;20138;-76
2022/03/23 01:51:54;;;;;;;0.00;0.00;;;6.00;70.70;;;;;;5140776;27;20094;-76
2022/03/23 01:54:20;;;;;;;0.00;0.00;;;6.00;71.00;;;;;;5157116;27;20015;-76
2022/03/23 01:56:48;;;;;;;0.00;0.00;;;6.00;70.70;;;;;;5140219;27;20042;-76
2022/03/23 01:59:16;;;;;;;0.00;0.00;;;6.00;71.20;;;;;;5140879;27;20376;-74
2022/03/23 02:01:42;;;;;;;0.00;0.00;;;6.00;71.10;;;;;;5140396;27;20026;-74
2022/03/23 02:04:09;;;;;;;0.00;0.00;;;5.90;70.80;;;;;;5122339;27;20063;-74
2022/03/23 02:06:35;;;;;;;0.00;0.00;;;5.80;70.60;;;;;;5140290;27;20015;-74
2022/03/23 02:09:00;;;;;;;0.00;0.00;;;5.80;69.70;;;;;;5122092;27;20237;-74
2022/03/23 02:11:27;;;;;;;0.00;0.00;;;5.80;69.60;;;;;;5139994;27;20033;-74
2022/03/23 02:13:53;;;;;;;0.00;0.00;;;5.80;69.60;;;;;;5156600;27;20019;-74
2022/03/23 02:16:19;;;;;;;0.00;0.00;;;5.80;69.50;;;;;;5140895;27;20049;-76
2022/03/23 02:18:46;;;;;;;0.00;0.00;;;5.80;69.20;;;;;;5139685;27;20259;-76
2022/03/23 02:21:15;;;;;;;0.00;0.00;;;5.80;70.80;;;;;;5140553;27;20102;-76
2022/03/23 02:23:41;;;;;;;0.00;0.00;;;5.80;70.60;;;;;;5140014;27;20023;-77
2022/03/23 02:26:08;;;;;;;0.00;0.00;;;5.70;69.40;;;;;;5156543;27;20070;-76
2022/03/23 02:28:34;;;;;;;0.00;0.00;;;5.70;69.70;;;;;;5140078;27;20015;-77
2022/03/23 02:31:01;;;;;;;0.00;0.00;;;5.70;69.20;;;;;;5140624;27;20011;-77
2022/03/23 02:33:27;;;;;;;0.00;0.00;;;5.70;68.70;;;;;;5139683;27;20015;-77
2022/03/23 02:35:54;;;;;;;0.00;0.00;;;5.70;68.00;;;;;;5140429;27;20113;-78
2022/03/23 02:38:19;;;;;;;0.00;0.00;;;5.70;68.70;;;;;;5140413;27;20060;-77
2022/03/23 02:40:46;;;;;;;0.00;0.00;;;5.70;70.20;;;;;;5139758;27;20213;-75
2022/03/23 02:43:13;;;;;;;0.00;0.00;;;5.70;70.00;;;;;;5121347;27;20076;-76
2022/03/23 02:45:38;;;;;;;0.00;0.00;;;5.70;71.20;;;;;;5121445;27;20038;-77
2022/03/23 02:48:06;;;;;;;0.00;0.00;;;5.70;72.00;;;;;;5140020;27;20338;-76
2022/03/23 02:50:32;;;;;;;0.00;0.00;;;5.60;72.20;;;;;;5120879;28;20026;-75
2022/03/23 03:02:05;;;;;;;0.00;0.00;;;5.50;72.00;;;;;;5118315;28;20053;-76
2022/03/23 03:04:31;;;;;;;0.00;0.00;;;5.50;73.00;;;;;;5121245;28;20019;-76
2022/03/23 03:06:58;;;;;;;0.00;0.00;;;5.60;73.70;;;;;;5140002;28;20083;-79
2022/03/23 03:09:23;;;;;;;0.00;0.00;;;5.40;73.20;;;;;;5121785;28;20023;-76
2022/03/23 03:11:50;;;;;;;0.00;0.00;;;5.50;74.40;;;;;;5155593;27;20304;-77
2022/03/23 03:14:15;;;;;;;0.00;0.00;;;5.50;74.30;;;;;;5104867;28;20024;-76
2022/03/23 03:16:41;;;;;;;0.00;0.00;;;5.50;75.00;;;;;;5121091;28;20015;-76
2022/03/23 03:19:09;;;;;;;0.00;0.00;;;5.40;73.90;;;;;;5139675;28;20171;-76
2022/03/23 03:21:35;;;;;;;0.00;0.00;;;5.50;74.40;;;;;;5120826;28;20090;-75
2022/03/23 03:24:01;;;;;;;0.00;0.00;;;5.40;74.20;;;;;;5139748;28;20298;-75
2022/03/23 03:26:30;;;;;;;0.00;0.00;;;5.30;73.70;;;;;;5155854;27;20019;-76
2022/03/23 03:28:57;;;;;;;0.00;0.00;;;5.30;73.70;;;;;;5121485;28;20064;-75
2022/03/23 03:31:23;;;;;;;0.00;0.00;;;5.30;74.80;;;;;;5139784;28;20032;-76
2022/03/23 03:33:49;;;;;;;0.00;0.00;;;5.30;75.70;;;;;;5155047;27;20052;-75
2022/03/23 03:36:15;;;;;;;0.00;0.00;;;5.30;76.10;;;;;;5121120;28;20043;-76
2022/03/23 03:38:41;;;;;;;0.00;0.00;;;5.30;76.00;;;;;;5155581;27;20060;-75
2022/03/23 03:41:08;;;;;;;15.32;4.13;;;5.30;76.40;;;;;;5121235;28;20015;-74
2022/03/23 03:43:35;;;;;;;0.00;0.00;;;5.30;76.90;;;;;;5139392;28;20277;-73
2022/03/23 03:46:02;;;;;;;0.00;0.00;;;5.20;77.90;;;;;;5121380;28;20022;-75
2022/03/23 03:48:28;;;;;;;0.00;0.00;;;5.20;77.70;;;;;;5139018;28;20093;-75
2022/03/23 03:50:54;;;;;;;0.00;0.00;;;5.20;78.60;;;;;;5140219;28;20019;-75
2022/03/23 03:53:22;;;;;;;0.00;0.00;;;5.20;78.80;;;;;;5140678;27;20134;-75
2022/03/23 03:55:47;;;;;;;0.00;0.00;;;5.20;78.90;;;;;;5142755;27;20175;-75
2022/03/23 03:58:14;;;;;;;0.00;0.00;;;5.10;79.10;;;;;;5143156;27;20023;-76
2022/03/23 04:00:40;;;;;;;0.00;0.00;;;5.10;79.60;;;;;;5158759;27;20063;-76
2022/03/23 04:03:06;;;;;;;0.00;0.00;;;5.00;79.90;;;;;;5159184;27;20244;-76
2022/03/23 04:05:33;;;;;;;0.10;0.10;;;5.00;80.00;;;;;;5142802;27;20011;-76
2022/03/23 04:07:59;;;;;;;0.00;0.00;;;5.00;80.30;;;;;;5142853;27;20015;-76
2022/03/23 04:10:26;;;;;;;0.00;0.00;;;4.90;80.30;;;;;;5143004;27;20228;-75
2022/03/23 04:12:52;;;;;;;0.00;0.00;;;4.90;80.10;;;;;;5124074;27;20025;-73
2022/03/23 04:15:20;;;;;;;0.00;0.00;;;4.90;80.20;;;;;;5158930;27;20011;-75
2022/03/23 04:17:45;;;;;;;0.00;0.00;;;4.90;79.70;;;;;;5123599;27;20063;-74
2022/03/23 04:20:12;;;;;;;0.00;0.00;;;4.80;79.70;;;;;;5123821;27;20054;-73
2022/03/23 04:22:41;;;;;;;0.10;0.10;;;4.80;79.80;;;;;;5141979;27;20033;-73
2022/03/23 04:25:09;;;;;;;0.00;0.00;;;4.80;79.40;;;;;;5124438;27;20053;-74
2022/03/23 04:27:43;;;;;;;0.00;0.00;;;4.80;79.90;;;;;;5123915;27;20152;-74
2022/03/23 04:30:09;;;;;;;0.00;0.00;;;4.80;79.60;;;;;;5143027;27;20051;-74
2022/03/23 04:32:35;;;;;;;0.00;0.00;;;4.70;78.60;;;;;;5142094;27;20015;-74
2022/03/23 04:35:01;;;;;;;0.00;0.00;;;4.70;78.20;;;;;;5142805;27;20027;-73
2022/03/23 04:37:26;;;;;;;0.00;0.00;;;4.70;78.50;;;;;;5142592;27;20191;-73
2022/03/23 04:39:52;;;;;;;0.00;0.00;;;4.70;78.30;;;;;;5142009;27;20090;-72
2022/03/23 04:42:18;;;;;;;0.00;0.00;;;4.70;78.20;;;;;;5142424;27;20198;-73
2022/03/23 04:44:44;;;;;;;0.00;0.00;;;4.80;78.10;;;;;;5142436;27;20297;-74
2022/03/23 04:47:09;;;;;;;0.00;0.00;;;4.60;77.60;;;;;;5142527;27;20023;-73
2022/03/23 04:49:35;;;;;;;0.00;0.00;;;4.60;77.70;;;;;;5141804;27;20070;-73
2022/03/23 04:52:01;;;;;;;0.30;0.30;;;4.60;76.90;;;;;;5158887;27;20265;-75
2022/03/23 04:54:26;;;;;;;0.00;0.00;;;4.60;76.80;;;;;;5142428;27;20154;-72
2022/03/23 04:56:52;;;;;;;0.00;0.00;;;4.60;76.90;;;;;;5141830;27;20068;-75
2022/03/23 04:59:18;;;;;;;0.00;0.00;;;4.50;76.90;;;;;;5123690;27;20034;-74
2022/03/23 05:01:43;;;;;;;0.00;0.00;;;4.60;77.90;;;;;;5141963;27;20171;-74
2022/03/23 05:04:09;;;;;;;0.00;0.00;;;4.50;77.90;;;;;;5142159;27;20027;-74
2022/03/23 05:06:35;;;;;;;0.00;0.00;;;4.60;77.50;;;;;;5141221;27;20045;-76
2022/03/23 05:09:01;;;;;;;0.00;0.00;;;4.60;77.80;;;;;;5142124;27;20027;-76
2022/03/23 05:11:27;;;;;;;0.00;0.00;;;4.50;78.00;;;;;;5123747;27;20026;-78
2022/03/23 05:13:53;;;;;;;0.15;0.15;;;4.50;77.90;;;;;;5141882;27;20020;-77
2022/03/23 05:16:19;;;;;;;0.00;0.00;;;4.50;77.90;;;;;;5158528;27;20022;-78
2022/03/23 05:18:45;;;;;;;0.00;0.00;;;4.50;77.50;;;;;;5141767;27;20019;-76
2022/03/23 05:21:11;;;;;;;0.00;0.00;;;4.50;77.70;;;;;;5142308;27;20027;-76
2022/03/23 05:23:37;;;;;;;0.00;0.00;;;4.50;78.00;;;;;;5141469;27;20023;-75
2022/03/23 05:26:03;;;;;;;0.00;0.00;;;4.50;77.70;;;;;;5123910;27;20015;-73
2022/03/23 05:28:29;;;;;;;0.00;0.00;;;4.50;77.50;;;;;;5141896;27;20110;-76
2022/03/23 05:30:54;;;;;;;0.00;0.00;;;4.60;77.30;;;;;;5141964;27;20095;-76
2022/03/23 05:33:20;;;;;;;0.00;0.00;;;4.60;77.80;;;;;;5123187;27;20019;-75
2022/03/23 05:35:46;;;;;;;0.00;0.00;;;4.60;78.10;;;;;;5141803;27;20197;-76
2022/03/23 05:38:12;;;;;;;0.00;0.00;;;4.60;79.00;;;;;;5141809;27;20397;-76
2022/03/23 05:40:37;;;;;;;0.00;0.00;;;4.60;78.00;;;;;;5141365;27;20034;-76
2022/03/23 05:43:03;;;;;;;0.00;0.00;;;4.70;79.10;;;;;;5141493;27;20218;-78
2022/03/23 05:45:29;;;;;;;0.00;0.00;;;4.60;77.70;;;;;;5157106;27;20015;-73
2022/03/23 05:47:56;;;;;;;0.00;0.00;;;4.70;76.50;;;;;;5141131;27;20284;-74
2022/03/23 05:50:22;;;;;;;0.00;0.00;;;5.00;76.30;;;;;;5140757;27;20034;-74
2022/03/23 05:52:48;;;;;;;0.00;0.00;;;4.60;74.80;;;;;;5141088;27;20064;-75
2022/03/23 05:55:14;;;;;;;0.00;0.00;;;4.70;74.90;;;;;;5141328;27;20212;-74
2022/03/23 05:57:39;;;;;;;0.00;0.00;;;4.70;75.70;;;;;;5140654;27;20031;-74
2022/03/23 06:00:09;;;;;;;0.00;0.00;;;4.70;75.20;;;;;;5141062;27;20159;-74
2022/03/23 06:02:35;;;;;;;0.00;0.00;;;4.70;75.90;;;;;;5140365;27;20019;-73
2022/03/23 06:05:00;;;;;;;0.00;0.00;;;4.80;76.40;;;;;;5122778;27;20079;-76
2022/03/23 06:07:26;;;;;;;0.00;0.00;;;4.80;77.00;;;;;;5140332;27;20047;-77
2022/03/23 06:09:52;;;;;;;0.20;0.10;;;4.80;77.50;;;;;;5122976;27;20175;-77
2022/03/23 06:12:17;;;;;;;0.10;0.10;;;4.80;77.40;;;;;;5140928;27;20019;-77
2022/03/23 06:14:44;;;;;;;0.00;0.00;;;4.90;76.30;;;;;;5121420;27;20021;-73
2022/03/23 06:17:10;;;;;;;0.00;0.00;;;5.00;76.60;;;;;;5139429;27;20023;-71
2022/03/23 06:19:36;;;;;;;0.00;0.00;;;5.00;77.10;;;;;;5139639;27;20029;-74
2022/03/23 06:22:03;;;;;;;0.00;0.00;;;5.00;76.20;;;;;;5140680;27;20047;-73
2022/03/23 06:24:28;;;;;;;0.00;0.00;;;5.00;75.10;;;;;;5140342;27;20038;-73
2022/03/23 06:26:54;;;;;;;0.00;0.00;;;5.10;75.40;;;;;;5139833;27;20019;-72
2022/03/23 06:29:20;;;;;;;0.00;0.00;;;5.10;76.50;;;;;;5140758;27;20095;-70
2022/03/23 06:31:46;;;;;;;0.00;0.00;;;5.20;76.50;;;;;;5121639;27;20022;-67
2022/03/23 06:34:11;;;;;;;0.00;0.00;;;5.20;76.50;;;;;;5140471;27;20202;-72
2022/03/23 06:36:37;;;;;;;0.00;0.00;;;5.20;76.10;;;;;;5155859;27;20023;-71
2022/03/23 06:39:04;;;;;;;0.00;0.00;;;5.30;75.00;;;;;;5140419;27;20090;-74
2022/03/23 06:41:30;;;;;;;0.00;0.00;;;5.30;72.40;;;;;;5121612;27;20025;-74
2022/03/23 06:43:56;;;;;;;0.00;0.00;;;5.40;73.40;;;;;;5139930;27;20019;-74
2022/03/23 06:46:22;;;;;;;0.00;0.00;;;5.40;73.40;;;;;;5139972;27;20023;-76
2022/03/23 06:48:48;;;;;;;0.00;0.00;;;5.40;73.70;;;;;;5139958;27;20339;-71
2022/03/23 06:51:14;;;;;;;0.00;0.00;;;5.50;73.90;;;;;;5139731;27;20214;-74
2022/03/23 06:53:41;;;;;;;0.00;0.00;;;5.60;74.30;;;;;;5121353;28;20027;-68
2022/03/23 06:56:07;;;;;;;0.00;0.00;;;5.60;75.00;;;;;;5121346;28;20046;-73
2022/03/23 06:58:33;;;;;;;0.00;0.00;;;5.70;74.60;;;;;;5120361;28;20062;-74
2022/03/23 07:01:00;;;;;;;0.00;0.00;;;5.80;73.30;;;;;;5121417;28;20310;-73
2022/03/23 07:03:25;;;;;;;0.00;0.00;;;5.80;73.50;;;;;;5139407;28;20052;-74
2022/03/23 07:05:51;;;;;;;0.00;0.00;;;5.90;72.90;;;;;;5139831;28;20303;-69
2022/03/23 07:11:02;;;;;;;0.00;0.00;;;6.00;71.40;;;;;;5139673;28;20086;-74
2022/03/23 07:13:27;;;;;;;0.00;0.00;;;6.10;73.10;;;;;;5120969;28;20045;-73
2022/03/23 07:15:54;;;;;;;0.00;0.00;;;6.20;73.50;;;;;;5155926;27;20015;-74
2022/03/23 07:18:19;;;;;;;0.00;0.00;;;6.30;73.70;;;;;;5121789;28;20023;-74
2022/03/23 07:20:45;;;;;;;0.00;0.00;;;6.40;73.20;;;;;;5120650;28;20310;-74
2022/03/23 07:23:11;;;;;;;0.00;0.00;;;6.40;73.40;;;;;;5156151;27;20033;-73
2022/03/23 07:25:37;;;;;;;0.00;0.00;;;6.50;72.70;;;;;;5139220;28;20043;-73
2022/03/23 07:28:03;;;;;;;0.00;0.00;;;6.60;73.70;;;;;;5122082;27;20091;-74
2022/03/23 07:30:30;;;;;;;0.00;0.00;;;6.70;73.50;;;;;;5143495;27;20019;-74
2022/03/23 07:32:56;;;;;;;0.00;0.00;;;6.80;74.40;;;;;;5143940;27;20050;-73
2022/03/23 07:35:22;;;;;;;0.00;0.00;;;6.90;73.90;;;;;;5143616;27;20019;-72
2022/03/23 07:37:48;;;;;;;0.00;0.00;;;7.00;73.60;;;;;;5143529;27;20035;-73
2022/03/23 07:40:14;;;;;;;0.00;0.00;;;7.00;73.50;;;;;;5143888;27;20027;-73
2022/03/23 07:42:39;;;;;;;0.00;0.00;;;7.10;72.90;;;;;;5143094;27;20143;-74
2022/03/23 07:45:06;;;;;;;0.00;0.00;;;7.20;74.60;;;;;;5143917;27;20249;-74
2022/03/23 07:47:32;;;;;;;0.00;0.00;;;7.30;73.40;;;;;;5143706;27;20090;-73
2022/03/23 07:49:58;;;;;;;0.00;0.00;;;7.40;72.70;;;;;;5143421;27;20097;-74
2022/03/23 07:52:24;;;;;;;0.00;0.00;;;7.50;74.40;;;;;;5143179;27;20270;-73
2022/03/23 07:54:51;;;;;;;0.00;0.00;;;7.60;73.30;;;;;;5159395;27;20077;-74
2022/03/23 07:57:17;;;;;;;0.00;0.00;;;7.70;72.90;;;;;;5124953;27;20298;-74
2022/03/23 07:59:43;;;;;;;0.00;0.00;;;7.80;73.40;;;;;;5143064;27;20029;-74
2022/03/23 08:02:09;;;;;;;0.00;0.00;;;7.90;72.60;;;;;;5143052;27;20083;-73
2022/03/23 08:04:36;;;;;;;0.00;0.00;;;8.00;71.90;;;;;;5142838;27;20232;-74
2022/03/23 08:07:02;;;;;;;0.00;0.00;;;8.10;71.20;;;;;;5143132;27;20075;-74
2022/03/23 08:09:28;;;;;;;0.00;0.00;;;8.20;71.80;;;;;;5124268;27;20023;-74
2022/03/23 08:11:53;;;;;;;0.00;0.00;;;8.30;71.40;;;;;;5143092;27;20030;-75
2022/03/23 08:14:21;;;;;;;0.00;0.00;;;8.40;71.50;;;;;;5125004;27;20054;-75
2022/03/23 08:16:47;;;;;;;0.00;0.00;;;8.50;72.20;;;;;;5142512;27;20046;-75
2022/03/23 08:19:12;;;;;;;0.00;0.00;;;8.60;70.30;;;;;;5142903;27;20055;-75
2022/03/23 08:21:38;;;;;;;0.00;0.00;;;8.70;66.10;;;;;;5158584;27;20228;-75
2022/03/23 08:24:04;;;;;;;0.00;0.00;;;8.90;66.80;;;;;;5142702;27;20015;-73
2022/03/23 08:26:30;;;;;;;0.00;0.00;;;9.00;64.80;;;;;;5142233;27;20026;-74
2022/03/23 08:28:56;;;;;;;0.00;0.00;;;9.10;65.20;;;;;;5143042;27;20014;-74
2022/03/23 08:31:23;;;;;;;0.00;0.00;;;9.20;67.30;;;;;;5142977;27;20324;-74
2022/03/23 08:33:49;;;;;;;0.00;0.00;;;9.30;64.50;;;;;;5142510;27;20329;-75
2022/03/23 08:36:15;;;;;;;0.00;0.00;;;9.40;64.30;;;;;;5142279;27;20027;-73
2022/03/23 08:38:41;;;;;;;0.00;0.00;;;9.40;66.20;;;;;;5142055;27;20362;-74
2022/03/23 08:41:06;;;;;;;0.25;0.25;;;9.70;61.30;;;;;;5141551;27;20049;-74
2022/03/23 08:43:33;;;;;;;0.00;0.00;;;9.80;61.40;;;;;;5158276;27;20310;-74
2022/03/23 08:46:00;;;;;;;0.00;0.00;;;9.90;60.30;;;;;;5158381;27;20019;-73
2022/03/23 08:48:26;;;;;;;0.00;0.00;;;10.10;59.70;;;;;;5141587;27;20043;-76
2022/03/23 08:50:52;;;;;;;0.00;0.00;;;10.30;59.70;;;;;;5158893;27;20023;-78
2022/03/23 08:53:19;;;;;;;0.00;0.00;;;10.40;57.00;;;;;;5142409;27;20190;-75
2022/03/23 08:55:45;;;;;;;0.00;0.00;;;10.40;56.00;;;;;;5140339;27;20074;-74
2022/03/23 08:58:11;;;;;;;0.00;0.00;;;10.40;61.30;;;;;;5137599;27;20325;-74
2022/03/23 09:00:37;;;;;;;0.00;0.00;;;10.60;60.40;;;;;;5140794;27;20086;-77
2022/03/23 09:03:03;;;;;;;0.00;0.00;;;10.60;58.40;;;;;;5141526;27;20015;-75
2022/03/23 09:05:29;;;;;;;0.00;0.00;;;10.70;60.50;;;;;;5140528;27;20210;-74
2022/03/23 09:07:56;;;;;;;0.00;0.00;;;10.80;58.80;;;;;;5140857;27;20015;-75
2022/03/23 09:10:23;;;;;;;0.00;0.00;;;10.80;58.40;;;;;;5141470;27;20042;-76
2022/03/23 09:12:49;;;;;;;0.00;0.00;;;10.80;57.90;;;;;;5141005;27;20019;-74
2022/03/23 09:15:17;;;;;;;0.00;0.00;;;10.80;59.30;;;;;;5140715;27;20019;-74
2022/03/23 09:17:43;;;;;;;0.00;0.00;;;10.90;57.90;;;;;;5140858;27;20015;-74
2022/03/23 09:20:11;;;;;;;0.00;0.00;;;10.90;57.00;;;;;;5140884;27;20157;-73
2022/03/23 09:22:37;;;;;;;;;;;11.10;61.20;;;;;;5140599;27;20290;-74
2022/03/23 09:25:09;;;;;;;0.20;0.20;;;11.10;61.30;;;;;;5140553;27;19907;-76
2022/03/23 09:27:43;;;;;;;0.00;0.00;;;11.20;57.80;;;;;;5121267;27;20059;-75
2022/03/23 09:30:11;;;;;;;0.00;0.00;;;11.20;56.50;;;;;;5140865;27;20110;-74
2022/03/23 09:32:38;;;;;;;0.00;0.00;;;11.30;59.30;;;;;;5121661;27;20176;-74
2022/03/23 09:35:05;;;;;;;0.00;0.00;;;11.40;57.60;;;;;;5140728;27;20023;-75
2022/03/23 09:37:49;;;;;;;0.00;0.00;;;11.50;58.00;;;;;;5139817;27;20271;-74
2022/03/23 09:40:27;;;;;;;0.00;0.00;;;11.60;58.40;;;;;;5156654;27;20076;-75
2022/03/23 09:43:04;;;;;;;;;;;11.70;57.80;;;;;;5134189;27;20023;-74
2022/03/23 09:48:04;;;;;;;0.30;0.30;;;11.80;55.00;;;;;;5139921;27;20051;-74
2022/03/23 09:50:33;;;;;;;0.00;0.00;;;11.90;56.20;;;;;;5121332;27;20045;-78
2022/03/23 09:52:59;;;;;;;0.00;0.00;;;11.90;57.50;;;;;;5137890;27;20349;-74
2022/03/23 09:55:26;;;;;;;0.00;0.00;;;11.90;57.30;;;;;;5117935;27;20024;-72
2022/03/23 09:57:56;;;;;;;0.20;0.13;;;12.10;56.10;;;;;;5121619;27;20019;-74
2022/03/23 10:00:22;;;;;;;0.00;0.00;;;12.10;55.20;;;;;;5140255;27;20023;-72
2022/03/23 10:02:57;;;;;;;0.00;0.00;;;12.20;58.50;;;;;;5140170;27;20078;-74
2022/03/23 10:05:47;;;;;;;0.20;0.20;;;12.30;53.70;;;;;;5140831;27;20015;-72
2022/03/23 10:08:51;;;;;;;0.00;0.00;;;12.40;54.10;;;;;;5144033;27;20015;-76
2022/03/23 10:11:54;;;;;;;0.00;0.00;;;12.40;54.80;;;;;;5139796;27;20053;-74
2022/03/23 10:14:31;;;;;;;0.00;0.00;;;12.40;57.20;;;;;;5140518;27;20026;-73
2022/03/23 10:17:46;;;;;;;0.00;0.00;;;12.50;59.00;;;;;;5121975;27;20026;-76
2022/03/23 10:20:13;;;;;;;0.00;0.00;;;12.50;59.80;;;;;;5139755;27;20049;-75
2022/03/23 10:22:50;;;;;;;0.00;0.00;;;12.60;61.50;;;;;;5121072;27;20026;-76
2022/03/23 10:25:17;;;;;;;0.00;0.00;;;12.70;59.90;;;;;;5121347;27;20083;-76
2022/03/23 10:27:44;;;;;;;0.00;0.00;;;12.80;61.90;;;;;;5139657;27;20019;-74
2022/03/23 10:30:10;;;;;;;0.00;0.00;;;13.10;60.60;;;;;;5121363;27;20391;-78
2022/03/23 10:32:42;;;;;;;0.00;0.00;;;13.60;60.00;;;;;;5120066;27;20019;-74
2022/03/23 10:35:14;;;;;;;0.05;0.05;;;15.00;63.80;;;;;;5120606;27;20025;-74
2022/03/23 10:37:42;;;;;;;0.00;0.00;;;16.50;66.10;;;;;;5136223;27;20023;-74
2022/03/23 10:40:11;;;;;;;0.00;0.00;;;17.60;49.60;;;;;;5138625;27;20029;-79
2022/03/23 10:42:42;;;;;;;0.00;0.00;;;18.60;50.80;;;;;;5119867;27;20023;-72
2022/03/23 10:45:17;;;;;;;0.00;0.00;;;19.60;54.50;;;;;;5138897;27;20022;-76
2022/03/23 10:47:46;;;;;;;0.00;0.00;;;20.30;50.30;;;;;;5120196;27;20369;-76
2022/03/23 10:50:26;;;;;;;0.00;0.00;;;20.80;54.70;;;;;;5120594;27;20314;-77
2022/03/23 10:52:56;;;;;;;0.00;0.00;;;21.30;51.30;;;;;;5120289;27;20023;-79
2022/03/23 10:55:23;;;;;;;0.00;0.00;;;21.70;49.70;;;;;;5120506;28;20022;-79
2022/03/23 10:58:01;;;;;;;0.00;0.00;;;22.10;49.50;;;;;;5138375;27;20019;-73
2022/03/23 11:00:35;;;;;;;0.00;0.00;;;22.40;45.70;;;;;;5138375;27;20034;-74
2022/03/23 11:03:03;;;;;;;0.00;0.00;;;22.70;45.60;;;;;;5120426;28;20392;-80
2022/03/23 11:05:40;;;;;;;0.00;0.00;;;23.10;50.80;;;;;;5120314;28;20191;-75
2022/03/23 11:08:09;;;;;;;0.00;0.00;;;23.20;42.60;;;;;;5120543;28;20027;-77
2022/03/23 11:16:13;;;;;;;0.00;0.00;;;23.60;46.30;;;;;;5138757;28;20029;-78
2022/03/23 11:18:39;;;;;;;0.00;0.00;;;23.80;48.50;;;;;;5120177;28;20098;-79
2022/03/23 11:21:05;;;;;;;0.00;0.00;;;23.90;50.00;;;;;;5138728;28;20046;-83
2022/03/23 11:23:33;;;;;;;0.00;0.00;;;23.90;44.90;;;;;;5154264;27;20019;-78
2022/03/23 11:26:00;;;;;;;;;;;23.90;48.30;;;;;;5120227;28;20026;-80
2022/03/23 11:28:31;;;;;;;0.00;0.00;;;23.80;45.40;;;;;;5138182;28;20182;-78
2022/03/23 11:30:58;;;;;;;0.00;0.00;;;23.70;45.70;;;;;;5120260;28;20030;-78
2022/03/23 11:33:26;;;;;;;0.00;0.00;;;23.80;48.20;;;;;;5138810;28;20015;-73
2022/03/23 11:35:53;;;;;;;0.00;0.00;;;23.70;43.00;;;;;;5119715;28;20086;-75
2022/03/23 11:38:23;;;;;;;0.00;0.00;;;23.60;45.00;;;;;;5138688;28;20090;-75
2022/03/23 11:40:50;;;;;;;0.00;0.00;;;23.40;45.00;;;;;;5138307;28;20026;-73
2022/03/23 11:43:18;;;;;;;0.00;0.00;;;23.40;38.30;;;;;;5120904;28;20023;-76
2022/03/23 11:45:46;;;;;;;0.00;0.00;;;23.20;39.90;;;;;;5138578;28;20042;-76
2022/03/23 11:48:39;;;;;;;;;;;23.30;41.00;;;;;;5136959;28;20261;-77
2022/03/23 11:51:38;;;;;;;0.00;0.00;;;23.30;45.80;;;;;;5139184;28;19963;-77
2022/03/23 11:54:28;;;;;;;0.00;0.00;;;23.30;44.50;;;;;;5138813;28;20034;-74
2022/03/23 11:56:56;;;;;;;0.00;0.00;;;23.10;42.80;;;;;;5120650;28;20204;-76
2022/03/23 11:59:24;;;;;;;0.00;0.00;;;23.00;41.70;;;;;;5138951;28;20136;-76
2022/03/23 12:01:51;;;;;;;0.00;0.00;;;22.70;37.80;;;;;;5138807;28;20058;-76
2022/03/23 12:04:43;;;;;;;0.00;0.00;;;22.60;43.60;;;;;;5139386;28;20015;-76
2022/03/23 12:07:11;;;;;;;0.00;0.00;;;22.40;42.00;;;;;;5135386;28;20039;-77
2022/03/23 12:09:40;;;;;;;0.00;0.00;;;22.30;41.60;;;;;;5119897;28;20030;-78
2022/03/23 12:12:32;;;;;;;0.00;0.00;;;22.20;41.00;;;;;;5120702;28;20023;-78
2022/03/23 12:15:23;;;;;;;0.00;0.00;;;22.10;42.60;;;;;;5120174;27;20298;-77
2022/03/23 12:18:09;;;;;;;0.00;0.00;;;22.00;39.30;;;;;;5142203;27;20082;-74
2022/03/23 12:20:46;;;;;;;0.00;0.00;;;22.00;41.80;;;;;;5157867;27;20027;-76
2022/03/23 12:23:15;;;;;;;0.00;0.00;;;21.70;40.10;;;;;;5142938;27;20019;-77
2022/03/23 12:26:03;;;;;;;0.00;0.00;;;21.50;43.50;;;;;;5141465;27;20011;-76
2022/03/23 12:28:54;;;;;;;0.00;0.00;;;21.20;38.80;;;;;;5123673;27;20180;-77
2022/03/23 12:31:21;;;;;;;0.00;0.00;;;20.90;43.60;;;;;;5123934;27;20232;-74
2022/03/23 12:34:07;;;;;;;0.00;0.00;;;20.70;43.90;;;;;;5141581;27;20011;-77
2022/03/23 12:39:35;;;;;;;0.00;0.00;;;20.30;41.70;;;;;;5141763;27;20031;-76
2022/03/23 12:42:23;;;;;;;0.00;0.00;;;20.00;42.60;;;;;;5141768;27;20034;-78
2022/03/23 12:45:05;;;;;;;0.00;0.00;;;19.80;41.70;;;;;;5141369;27;20015;-75
2022/03/23 12:47:34;;;;;;;0.00;0.00;;;19.60;41.50;;;;;;5141215;27;20206;-78
2022/03/23 12:58:34;;;;;;;0.00;0.00;;;19.20;43.40;;;;;;5140875;27;20022;-75
2022/03/23 13:01:17;;;;;;;0.00;0.00;;;19.20;46.70;;;;;;5123274;27;20047;-77
2022/03/23 13:03:53;;;;;;;0.00;0.00;;;19.10;44.90;;;;;;5122653;27;20026;-76
2022/03/23 13:06:30;;;;;;;0.00;0.00;;;19.00;43.70;;;;;;5141698;27;20023;-74
2022/03/23 13:08:56;;;;;;;0.00;0.00;;;19.00;41.20;;;;;;5134637;27;20126;-76
2022/03/23 13:11:24;;;;;;;0.00;0.00;;;19.00;41.80;;;;;;5141619;27;20023;-74
2022/03/23 13:13:52;;;;;;;0.00;0.00;;;18.90;40.20;;;;;;5122569;27;20019;-75
2022/03/23 13:16:23;;;;;;;0.00;0.00;;;18.90;41.70;;;;;;5141267;27;20052;-79
2022/03/23 13:18:54;;;;;;;0.00;0.00;;;18.90;38.00;;;;;;5140767;27;20026;-75
2022/03/23 13:21:22;;;;;;;0.00;0.00;;;19.10;42.20;;;;;;5141452;27;20292;-77
2022/03/23 13:23:50;;;;;;;0.00;0.00;;;19.00;41.30;;;;;;5122314;27;20201;-77
2022/03/23 13:26:21;;;;;;;0.00;0.00;;;18.90;41.50;;;;;;5140481;27;20027;-78
2022/03/23 13:28:55;;;;;;;0.00;0.00;;;18.90;42.20;;;;;;5140766;27;20278;-77
2022/03/23 13:31:32;;;;;;;0.00;0.00;;;18.90;40.10;;;;;;5141004;27;20019;-76
2022/03/23 13:34:04;;;;;;;0.00;0.00;;;18.90;38.50;;;;;;5122587;27;20047;-77